Time;durP1;ratioP1;P1;durP2;ratioP2;P2;SDS_P1;SDS_P2;PMS_P1;PMS_P2;Temp;Humidity;BMP_temperature;BMP_pressure;BME280_temperature;BME280_humidity;BME280_pressure;Samples;Min_cycle;Max_cycle;Signal;HPM_P1;HPM_P2
2023/09/21 00:00:56;;;;;;;1.70;0.50;;;18.30;99.90;;;;;;5054427;28;20048;-76
2023/09/21 00:03:24;;;;;;;2.05;0.50;;;18.30;99.90;;;;;;5062395;28;20139;-76
2023/09/21 00:05:53;;;;;;;2.92;0.75;;;18.30;99.90;;;;;;5056321;28;20415;-76
2023/09/21 00:08:20;;;;;;;2.63;0.60;;;18.30;99.90;;;;;;5055702;28;20056;-76
2023/09/21 00:10:47;;;;;;;1.90;0.68;;;18.30;99.90;;;;;;5047369;28;20041;-76
2023/09/21 00:13:15;;;;;;;0.90;0.40;;;18.30;99.90;;;;;;5056717;28;20048;-76
2023/09/21 00:15:43;;;;;;;2.67;0.70;;;18.20;99.90;;;;;;5060988;28;22958;-76
2023/09/21 00:18:10;;;;;;;2.05;0.50;;;18.20;99.90;;;;;;5042628;28;20044;-76
2023/09/21 00:20:49;;;;;;;1.50;0.57;;;18.20;99.90;;;;;;5058307;28;20045;-76
2023/09/21 00:23:16;;;;;;;1.20;0.43;;;18.20;99.90;;;;;;5059504;28;20814;-76
2023/09/21 00:25:43;;;;;;;2.47;0.55;;;18.20;99.90;;;;;;5059511;28;20127;-76
2023/09/21 00:28:13;;;;;;;1.92;0.50;;;18.20;99.90;;;;;;5053354;28;20044;-76
2023/09/21 00:30:41;;;;;;;3.90;0.70;;;18.10;99.90;;;;;;5050290;28;20129;-76
2023/09/21 00:33:09;;;;;;;3.60;0.50;;;18.10;99.90;;;;;;5060262;28;20110;-76
2023/09/21 00:35:39;;;;;;;1.83;0.45;;;18.10;99.90;;;;;;5044816;28;20518;-76
2023/09/21 00:38:10;;;;;;;0.95;0.40;;;18.10;99.90;;;;;;5052977;28;20044;-76
2023/09/21 00:40:38;;;;;;;2.17;0.73;;;18.00;99.90;;;;;;5063754;28;20041;-76
2023/09/21 00:43:18;;;;;;;3.10;0.45;;;18.00;99.90;;;;;;5056125;28;20048;-76
2023/09/21 00:45:54;;;;;;;2.03;0.82;;;18.00;99.90;;;;;;5054607;28;20044;-76
2023/09/21 00:48:23;;;;;;;4.45;0.93;;;17.90;99.90;;;;;;5042093;28;20051;-76
2023/09/21 00:50:53;;;;;;;1.33;0.70;;;17.90;99.90;;;;;;5040984;28;21017;-76
2023/09/21 00:53:22;;;;;;;3.80;0.85;;;17.90;99.90;;;;;;5077808;28;20139;-76
2023/09/21 00:55:56;;;;;;;1.98;0.43;;;17.90;99.90;;;;;;5062283;28;20048;-76
2023/09/21 00:58:25;;;;;;;1.20;0.70;;;17.90;99.90;;;;;;5053118;28;20511;-76
2023/09/21 01:00:55;;;;;;;3.35;0.50;;;17.90;99.90;;;;;;5048864;28;20057;-76
2023/09/21 01:03:27;;;;;;;3.00;0.60;;;17.90;99.90;;;;;;5039277;28;20056;-76
2023/09/21 01:05:55;;;;;;;1.48;0.60;;;17.90;99.90;;;;;;5046163;28;20037;-76
2023/09/21 01:08:28;;;;;;;3.13;0.80;;;17.90;99.90;;;;;;5061812;28;20454;-76
2023/09/21 01:10:57;;;;;;;2.03;0.70;;;17.90;99.90;;;;;;5051366;28;20043;-76
2023/09/21 01:13:27;;;;;;;4.10;0.70;;;17.80;99.90;;;;;;5065685;28;20040;-76
2023/09/21 01:16:03;;;;;;;4.05;0.88;;;17.80;99.90;;;;;;5058968;28;20044;-76
2023/09/21 01:18:31;;;;;;;2.80;0.60;;;17.80;99.90;;;;;;5055377;28;20056;-76
2023/09/21 01:21:04;;;;;;;3.75;0.70;;;17.70;99.90;;;;;;5053895;28;20044;-76
2023/09/21 01:23:43;;;;;;;3.80;1.30;;;17.70;99.90;;;;;;5066752;28;20103;-76
2023/09/21 01:26:11;;;;;;;1.40;0.70;;;17.70;99.90;;;;;;5055358;28;20086;-76
2023/09/21 01:28:39;;;;;;;2.17;0.70;;;17.70;99.90;;;;;;5062516;28;20037;-76
2023/09/21 01:31:11;;;;;;;5.18;0.80;;;17.70;99.90;;;;;;5045291;28;20045;-76
2023/09/21 01:33:42;;;;;;;4.18;1.10;;;17.60;99.90;;;;;;5044767;28;20048;-76
2023/09/21 01:36:12;;;;;;;2.17;1.00;;;17.70;99.90;;;;;;5051271;28;20876;-76
2023/09/21 01:38:46;;;;;;;1.52;0.80;;;17.60;99.90;;;;;;5048600;28;20411;-76
2023/09/21 01:41:16;;;;;;;2.53;1.00;;;17.60;99.90;;;;;;5041771;28;20144;-76
2023/09/21 01:43:44;;;;;;;1.77;0.75;;;17.50;99.90;;;;;;5053857;28;20131;-76
2023/09/21 01:46:14;;;;;;;4.00;0.88;;;17.60;99.90;;;;;;5054521;28;20041;-76
2023/09/21 01:48:44;;;;;;;3.60;0.90;;;17.60;99.90;;;;;;5054105;28;20126;-76
2023/09/21 01:51:12;;;;;;;1.67;0.90;;;17.60;99.90;;;;;;5042375;28;20056;-76
2023/09/21 01:53:39;;;;;;;1.95;0.70;;;17.60;99.90;;;;;;5054499;28;20106;-76
2023/09/21 01:56:07;;;;;;;2.15;0.98;;;17.50;99.90;;;;;;5061850;28;20041;-76
2023/09/21 01:58:34;;;;;;;3.38;1.00;;;17.50;99.90;;;;;;5053257;28;20079;-76
2023/09/21 02:01:03;;;;;;;2.83;0.98;;;17.50;99.90;;;;;;5050399;28;22629;-76
2023/09/21 02:03:31;;;;;;;2.50;0.80;;;17.50;99.90;;;;;;5054536;28;20554;-76
2023/09/21 02:06:02;;;;;;;4.45;0.90;;;17.40;99.90;;;;;;5051463;28;20520;-76
2023/09/21 02:08:31;;;;;;;1.88;0.82;;;17.40;99.90;;;;;;5036721;28;20434;-76
2023/09/21 02:10:59;;;;;;;4.88;1.30;;;17.40;99.90;;;;;;5051551;28;20766;-76
2023/09/21 02:13:29;;;;;;;4.47;0.98;;;17.40;99.90;;;;;;5038918;28;20053;-76
2023/09/21 02:15:56;;;;;;;4.40;0.98;;;17.30;99.90;;;;;;5073896;28;20036;-76
2023/09/21 02:18:23;;;;;;;2.08;0.93;;;17.40;99.90;;;;;;5057280;28;20056;-76
2023/09/21 02:20:51;;;;;;;1.83;0.57;;;17.30;99.90;;;;;;5050501;28;21285;-76
2023/09/21 02:23:23;;;;;;;3.15;1.30;;;17.30;99.90;;;;;;5066410;28;20158;-76
2023/09/21 02:25:52;;;;;;;2.72;1.10;;;17.30;99.90;;;;;;5065043;28;20411;-76
2023/09/21 02:28:19;;;;;;;2.05;1.00;;;17.30;99.90;;;;;;5060726;28;20127;-76
2023/09/21 02:30:48;;;;;;;3.88;1.13;;;17.30;99.90;;;;;;5056960;28;22455;-76
2023/09/21 02:33:16;;;;;;;3.58;1.17;;;17.20;99.90;;;;;;5047620;28;20041;-76
2023/09/21 02:35:46;;;;;;;3.13;1.10;;;17.30;99.90;;;;;;5062453;28;20519;-76
2023/09/21 02:38:17;;;;;;;2.08;0.73;;;17.30;99.90;;;;;;5065056;28;20037;-76
2023/09/21 02:40:45;;;;;;;2.17;1.13;;;17.20;99.90;;;;;;5065059;28;20044;-76
2023/09/21 02:43:15;;;;;;;2.55;1.02;;;17.20;99.90;;;;;;5071911;28;20044;-76
2023/09/21 02:45:44;;;;;;;2.65;1.00;;;17.20;99.90;;;;;;5046729;28;20057;-76
2023/09/21 02:48:14;;;;;;;2.53;0.85;;;17.20;99.90;;;;;;5064740;28;20049;-76
2023/09/21 02:50:43;;;;;;;2.05;1.15;;;17.20;99.90;;;;;;5054377;28;20056;-76
2023/09/21 02:53:12;;;;;;;2.70;0.85;;;17.20;99.90;;;;;;5055420;28;20135;-76
2023/09/21 02:55:42;;;;;;;3.40;1.00;;;17.20;99.90;;;;;;5054268;28;20056;-76
2023/09/21 02:58:11;;;;;;;3.00;1.00;;;17.20;99.90;;;;;;5054489;28;22594;-76
2023/09/21 03:00:49;;;;;;;4.35;1.20;;;17.10;99.90;;;;;;5063155;28;20067;-76
2023/09/21 03:03:23;;;;;;;3.92;1.10;;;17.10;99.90;;;;;;5047570;28;20044;-76
2023/09/21 03:05:52;;;;;;;3.33;0.80;;;17.10;99.90;;;;;;5073733;28;20080;-76
2023/09/21 03:08:22;;;;;;;2.88;1.00;;;17.00;99.90;;;;;;5053378;28;20056;-76
2023/09/21 03:10:55;;;;;;;3.97;1.20;;;17.00;99.90;;;;;;5059392;28;20061;-76
2023/09/21 03:13:23;;;;;;;3.70;1.17;;;17.00;99.90;;;;;;5054991;28;20041;-76
2023/09/21 03:15:54;;;;;;;2.28;1.13;;;17.00;99.90;;;;;;5059907;28;21014;-76
2023/09/21 03:18:24;;;;;;;2.00;1.25;;;17.00;99.90;;;;;;5065088;28;20044;-76
2023/09/21 03:20:53;;;;;;;2.70;1.20;;;16.90;99.90;;;;;;5075683;28;20049;-76
2023/09/21 03:23:23;;;;;;;5.53;1.60;;;17.00;99.90;;;;;;5046990;28;20056;-76
2023/09/21 03:25:51;;;;;;;3.50;1.05;;;17.00;99.90;;;;;;5055320;28;20395;-76
2023/09/21 03:28:22;;;;;;;4.40;1.58;;;17.00;99.90;;;;;;5066318;28;20060;-76
2023/09/21 03:30:51;;;;;;;3.88;1.20;;;17.00;99.90;;;;;;5064118;28;20056;-76
2023/09/21 03:33:20;;;;;;;4.45;1.20;;;17.00;99.90;;;;;;5052371;28;20144;-76
2023/09/21 03:35:48;;;;;;;1.63;1.20;;;17.00;99.90;;;;;;5045724;28;20041;-76
2023/09/21 03:38:18;;;;;;;2.70;1.10;;;17.00;99.90;;;;;;5056784;28;20414;-76
2023/09/21 03:40:48;;;;;;;5.00;2.03;;;16.90;99.90;;;;;;5039237;28;20057;-76
2023/09/21 03:43:18;;;;;;;3.25;1.23;;;16.90;99.90;;;;;;5053997;28;20071;-76
2023/09/21 03:45:46;;;;;;;3.75;1.40;;;16.90;99.90;;;;;;5041349;28;20059;-76
2023/09/21 03:48:13;;;;;;;3.63;1.02;;;16.80;99.90;;;;;;5072367;28;20046;-76
2023/09/21 03:50:42;;;;;;;3.47;1.13;;;16.80;99.90;;;;;;5055467;28;20115;-76
2023/09/21 03:53:11;;;;;;;3.65;1.45;;;16.80;99.90;;;;;;5059766;28;20052;-76
2023/09/21 03:55:40;;;;;;;4.75;1.65;;;16.80;99.90;;;;;;5047664;28;22552;-76
2023/09/21 03:58:08;;;;;;;5.60;1.58;;;16.80;99.90;;;;;;5047060;28;20385;-76
2023/09/21 04:00:36;;;;;;;3.78;1.25;;;16.80;99.90;;;;;;5059001;28;22483;-76
2023/09/21 04:03:11;;;;;;;3.55;1.08;;;16.80;99.90;;;;;;5052751;28;20040;-76
2023/09/21 04:06:08;;;;;;;4.78;1.50;;;16.90;99.90;;;;;;5046787;28;20044;-76
2023/09/21 04:08:36;;;;;;;2.42;1.55;;;16.90;99.90;;;;;;5055910;28;20148;-76
2023/09/21 04:11:03;;;;;;;5.82;1.63;;;16.90;99.90;;;;;;5045591;28;20048;-76
2023/09/21 04:13:30;;;;;;;3.20;1.55;;;16.90;99.90;;;;;;5049116;28;20564;-76
2023/09/21 04:15:58;;;;;;;5.03;1.25;;;17.00;99.90;;;;;;5060896;28;20045;-76
2023/09/21 04:18:26;;;;;;;3.40;1.20;;;17.00;99.90;;;;;;5045718;28;20049;-76
2023/09/21 04:20:54;;;;;;;2.63;1.40;;;17.00;99.90;;;;;;5053608;28;20052;-76
2023/09/21 04:23:43;;;;;;;4.10;1.10;;;17.00;99.90;;;;;;5042086;28;20055;-76
2023/09/21 04:26:12;;;;;;;2.60;1.48;;;17.00;99.90;;;;;;5052647;28;20475;-76
2023/09/21 04:28:39;;;;;;;3.05;1.60;;;17.10;99.90;;;;;;5051776;28;20063;-76
2023/09/21 04:31:09;;;;;;;4.20;1.30;;;17.10;99.90;;;;;;5061059;28;20102;-76
2023/09/21 04:33:37;;;;;;;2.65;1.10;;;17.00;99.90;;;;;;5055749;28;20154;-76
2023/09/21 04:36:04;;;;;;;6.57;1.30;;;17.00;99.90;;;;;;5056210;28;20041;-76
2023/09/21 04:38:32;;;;;;;3.63;1.67;;;17.10;99.90;;;;;;5053460;28;20037;-76
2023/09/21 04:40:59;;;;;;;4.93;1.50;;;17.10;99.90;;;;;;5045895;28;20120;-76
2023/09/21 04:43:28;;;;;;;4.05;1.35;;;17.00;99.90;;;;;;5054050;28;20041;-76
2023/09/21 04:45:56;;;;;;;3.90;1.40;;;17.00;99.90;;;;;;5052656;28;20049;-77
2023/09/21 04:48:23;;;;;;;7.63;1.88;;;17.10;99.90;;;;;;5055553;28;20499;-76
2023/09/21 04:50:50;;;;;;;4.40;1.27;;;17.10;99.90;;;;;;5062703;28;20051;-76
2023/09/21 04:53:17;;;;;;;4.00;1.27;;;17.10;99.90;;;;;;5038547;28;20048;-76
2023/09/21 04:55:46;;;;;;;4.28;1.70;;;17.10;99.90;;;;;;5058509;28;20392;-77
2023/09/21 04:58:13;;;;;;;4.45;1.77;;;17.10;99.90;;;;;;5054255;28;22452;-78
2023/09/21 05:00:40;;;;;;;3.83;1.38;;;17.20;99.90;;;;;;5044506;28;20143;-78
2023/09/21 05:03:09;;;;;;;3.40;1.60;;;17.10;99.90;;;;;;5055097;28;20093;-76
2023/09/21 05:05:36;;;;;;;4.88;1.60;;;17.20;99.90;;;;;;5062535;28;20048;-76
2023/09/21 05:08:05;;;;;;;4.55;1.42;;;17.20;99.90;;;;;;5051288;28;22587;-79
2023/09/21 05:10:32;;;;;;;3.47;1.35;;;17.30;99.90;;;;;;5060438;28;20048;-78
2023/09/21 05:12:59;;;;;;;8.75;2.97;;;17.30;99.90;;;;;;5055714;28;20949;-78
2023/09/21 05:15:27;;;;;;;5.38;1.52;;;17.40;99.90;;;;;;5037687;28;20143;-79
2023/09/21 05:17:54;;;;;;;4.43;1.60;;;17.40;99.90;;;;;;5071151;28;20043;-78
2023/09/21 05:20:21;;;;;;;4.13;1.48;;;17.40;99.90;;;;;;5071159;28;20059;-79
2023/09/21 05:22:48;;;;;;;4.18;1.65;;;17.40;99.90;;;;;;5046001;28;20063;-78
2023/09/21 05:25:15;;;;;;;6.05;1.60;;;17.40;99.90;;;;;;5054330;28;20102;-78
2023/09/21 05:27:43;;;;;;;6.28;1.65;;;17.40;99.90;;;;;;5054889;28;20186;-79
2023/09/21 05:30:10;;;;;;;6.20;1.85;;;17.30;99.90;;;;;;5054014;28;20071;-79
2023/09/21 05:32:38;;;;;;;3.65;1.52;;;17.40;99.90;;;;;;5044067;28;22464;-79
2023/09/21 05:35:10;;;;;;;3.47;1.50;;;17.50;99.90;;;;;;5071887;28;20525;-78
2023/09/21 05:37:38;;;;;;;3.45;1.20;;;17.50;99.90;;;;;;5070835;28;20048;-78
2023/09/21 05:40:06;;;;;;;2.85;1.38;;;17.50;99.90;;;;;;5055895;28;20045;-78
2023/09/21 05:42:35;;;;;;;2.60;1.23;;;17.60;99.90;;;;;;5060975;28;20053;-78
2023/09/21 05:45:03;;;;;;;4.35;1.55;;;17.50;99.90;;;;;;5057155;28;20068;-79
2023/09/21 05:47:31;;;;;;;5.43;1.40;;;17.60;99.90;;;;;;5052536;28;20075;-78
2023/09/21 05:49:58;;;;;;;5.32;1.88;;;17.50;99.90;;;;;;5044516;28;20061;-79
2023/09/21 05:52:25;;;;;;;4.93;1.95;;;17.60;99.90;;;;;;5059306;28;20055;-79
2023/09/21 05:54:53;;;;;;;7.53;1.58;;;17.60;99.90;;;;;;5057750;28;20051;-79
2023/09/21 05:57:21;;;;;;;3.22;1.60;;;17.60;99.90;;;;;;5045159;28;20114;-79
2023/09/21 05:59:49;;;;;;;4.32;1.13;;;17.60;99.90;;;;;;5071938;28;20056;-79
2023/09/21 06:02:16;;;;;;;4.53;1.02;;;17.60;99.90;;;;;;5056291;28;20056;-78
2023/09/21 06:04:43;;;;;;;4.50;1.02;;;17.70;99.90;;;;;;5072876;28;20044;-79
2023/09/21 06:07:11;;;;;;;4.88;1.42;;;17.70;99.90;;;;;;5077770;28;20130;-79
2023/09/21 06:09:39;;;;;;;4.85;1.02;;;17.70;99.90;;;;;;5062857;28;20048;-79
2023/09/21 06:12:07;;;;;;;2.47;1.02;;;17.70;99.90;;;;;;5040355;28;20049;-79
2023/09/21 06:14:37;;;;;;;5.97;2.03;;;17.70;99.90;;;;;;5054529;28;20049;-79
2023/09/21 06:17:12;;;;;;;4.85;1.20;;;17.70;99.90;;;;;;5040728;28;20066;-80
2023/09/21 06:19:41;;;;;;;4.15;1.05;;;17.70;99.90;;;;;;5053593;28;20102;-81
2023/09/21 06:22:09;;;;;;;4.68;1.30;;;17.70;99.90;;;;;;5067662;28;20051;-80
2023/09/21 06:24:38;;;;;;;2.28;1.27;;;17.70;99.90;;;;;;5068462;28;20168;-82
2023/09/21 06:27:05;;;;;;;7.68;1.92;;;17.60;99.90;;;;;;5042026;28;20045;-81
2023/09/21 06:29:32;;;;;;;7.25;1.83;;;17.60;99.90;;;;;;5046437;28;20032;-81
2023/09/21 06:32:00;;;;;;;4.65;2.30;;;17.60;99.90;;;;;;5054042;28;20048;-80
2023/09/21 06:34:42;;;;;;;3.85;2.00;;;17.50;99.90;;;;;;5053199;28;20076;-79
2023/09/21 06:37:14;;;;;;;4.22;1.90;;;17.50;99.90;;;;;;5047552;28;22407;-79
2023/09/21 06:39:41;;;;;;;4.22;1.88;;;17.50;99.90;;;;;;5054287;28;20412;-79
2023/09/21 06:42:08;;;;;;;3.33;1.63;;;17.50;99.90;;;;;;5057771;28;20071;-79
2023/09/21 06:44:36;;;;;;;3.38;1.80;;;17.50;99.90;;;;;;5054617;28;20230;-80
2023/09/21 06:47:04;;;;;;;4.55;1.95;;;17.60;99.90;;;;;;5053231;28;20044;-78
2023/09/21 06:49:34;;;;;;;3.35;2.10;;;17.70;99.90;;;;;;5053603;28;20056;-78
2023/09/21 06:52:03;;;;;;;5.07;2.30;;;17.60;99.90;;;;;;5063169;28;20986;-79
2023/09/21 06:54:31;;;;;;;4.32;2.35;;;17.60;99.90;;;;;;5039676;28;20098;-78
2023/09/21 06:57:03;;;;;;;5.90;2.47;;;17.70;99.90;;;;;;5058812;28;20048;-79
2023/09/21 06:59:34;;;;;;;6.15;2.28;;;17.70;99.90;;;;;;5055284;28;22554;-78
2023/09/21 07:02:03;;;;;;;7.72;2.88;;;17.70;99.90;;;;;;5062098;28;20128;-79
2023/09/21 07:04:33;;;;;;;4.60;2.60;;;17.70;99.90;;;;;;5044009;28;20045;-79
2023/09/21 07:07:05;;;;;;;4.43;2.40;;;17.70;99.90;;;;;;5053409;28;20103;-82
2023/09/21 07:09:36;;;;;;;4.00;2.25;;;17.80;99.90;;;;;;5059616;28;20191;-79
2023/09/21 07:12:05;;;;;;;3.72;2.50;;;17.80;99.90;;;;;;5068718;28;20052;-79
2023/09/21 07:14:36;;;;;;;3.25;2.08;;;17.90;99.90;;;;;;5053082;28;20045;-79
2023/09/21 07:17:07;;;;;;;5.03;2.97;;;17.90;99.90;;;;;;5043875;28;20099;-78
2023/09/21 07:19:35;;;;;;;5.88;2.53;;;17.90;99.90;;;;;;5054948;28;20049;-79
2023/09/21 07:22:03;;;;;;;3.30;2.03;;;18.00;99.90;;;;;;5072535;28;20048;-79
2023/09/21 07:24:31;;;;;;;4.43;2.30;;;18.20;99.90;;;;;;5052281;28;20203;-79
2023/09/21 07:27:00;;;;;;;4.57;1.98;;;18.40;99.90;;;;;;5037720;28;20060;-79
2023/09/21 07:29:28;;;;;;;4.55;1.73;;;18.60;99.90;;;;;;5044185;28;20049;-80
2023/09/21 07:31:55;;;;;;;3.65;1.83;;;18.80;99.90;;;;;;5061075;28;20040;-80
2023/09/21 07:34:23;;;;;;;2.92;1.80;;;18.70;99.90;;;;;;5062698;28;20087;-81
2023/09/21 07:36:50;;;;;;;4.40;1.95;;;18.60;99.90;;;;;;5069217;28;20041;-79
2023/09/21 07:39:17;;;;;;;4.28;1.80;;;18.70;99.90;;;;;;5058901;28;20041;-81
2023/09/21 07:41:46;;;;;;;2.60;1.90;;;18.80;99.90;;;;;;5050509;28;20090;-79
2023/09/21 07:44:16;;;;;;;4.82;2.08;;;18.90;99.90;;;;;;5065624;28;20680;-79
2023/09/21 07:46:44;;;;;;;7.60;2.13;;;19.10;99.90;;;;;;5060753;28;20137;-80
2023/09/21 07:49:13;;;;;;;4.13;1.48;;;19.00;99.90;;;;;;5052077;28;20058;-79
2023/09/21 07:51:40;;;;;;;2.72;1.63;;;19.00;99.90;;;;;;5052187;28;20073;-79
2023/09/21 07:54:08;;;;;;;3.30;1.20;;;19.10;99.90;;;;;;5062224;28;20059;-78
2023/09/21 07:56:36;;;;;;;2.00;1.05;;;19.00;99.90;;;;;;5057808;28;20063;-78
2023/09/21 07:59:06;;;;;;;3.90;1.40;;;19.00;99.90;;;;;;5035018;28;20048;-82
2023/09/21 08:01:34;;;;;;;6.90;1.80;;;19.00;99.90;;;;;;5054796;28;20098;-81
2023/09/21 08:04:01;;;;;;;2.75;1.15;;;18.90;99.90;;;;;;5053886;28;20573;-78
2023/09/21 08:06:29;;;;;;;3.35;1.50;;;18.90;99.90;;;;;;5065725;28;20138;-79
2023/09/21 08:08:57;;;;;;;4.07;1.35;;;18.80;99.90;;;;;;5060702;28;20056;-79
2023/09/21 08:11:25;;;;;;;3.95;1.30;;;18.80;99.90;;;;;;5056989;28;20052;-79
2023/09/21 08:13:52;;;;;;;5.57;1.63;;;18.80;99.90;;;;;;5066413;28;20053;-79
2023/09/21 08:16:20;;;;;;;5.40;1.70;;;18.70;99.90;;;;;;5050228;28;20127;-79
2023/09/21 08:18:47;;;;;;;3.58;1.50;;;18.70;99.90;;;;;;5051886;28;20064;-79
2023/09/21 08:21:16;;;;;;;3.38;1.60;;;18.70;99.90;;;;;;5061817;28;20055;-79
2023/09/21 08:23:43;;;;;;;3.47;1.83;;;18.70;99.90;;;;;;5052709;28;20126;-78
2023/09/21 08:26:13;;;;;;;4.43;1.70;;;18.70;99.90;;;;;;5041589;28;20106;-79
2023/09/21 08:28:41;;;;;;;3.63;1.63;;;18.70;99.90;;;;;;5065237;28;22491;-80
2023/09/21 08:31:09;;;;;;;7.32;2.42;;;18.60;99.90;;;;;;5041222;28;20090;-79
2023/09/21 08:33:36;;;;;;;5.45;2.15;;;18.60;99.90;;;;;;5061883;28;22445;-79
2023/09/21 08:36:05;;;;;;;7.00;3.17;;;18.60;99.90;;;;;;5047764;28;20045;-78
2023/09/21 08:38:32;;;;;;;4.75;2.83;;;18.70;99.90;;;;;;5056731;28;20048;-78
2023/09/21 08:41:00;;;;;;;5.82;2.80;;;18.70;99.90;;;;;;5055142;28;20040;-78
2023/09/21 08:43:29;;;;;;;3.70;2.40;;;18.70;99.90;;;;;;5052752;28;20041;-77
2023/09/21 08:45:57;;;;;;;4.70;2.13;;;18.70;99.90;;;;;;5064773;28;20602;-77
2023/09/21 08:48:26;;;;;;;4.18;2.35;;;18.70;99.90;;;;;;5042452;28;20820;-77
2023/09/21 08:50:57;;;;;;;4.15;2.92;;;18.70;99.90;;;;;;5053326;28;20071;-77
2023/09/21 08:53:26;;;;;;;3.95;2.50;;;18.70;99.90;;;;;;5059390;28;22466;-77
2023/09/21 08:55:57;;;;;;;7.28;4.32;;;18.70;99.90;;;;;;5052983;28;20041;-77
2023/09/21 08:58:27;;;;;;;5.53;3.80;;;18.70;99.90;;;;;;5055163;28;20059;-77
2023/09/21 09:00:56;;;;;;;6.90;3.70;;;18.80;99.90;;;;;;5056251;28;20967;-77
2023/09/21 09:03:27;;;;;;;5.25;3.22;;;18.80;99.90;;;;;;5069603;28;20055;-76
2023/09/21 09:05:58;;;;;;;9.40;3.47;;;18.80;99.90;;;;;;5057600;28;20051;-77
2023/09/21 09:08:27;;;;;;;6.00;3.42;;;18.80;99.90;;;;;;5064752;28;20040;-77
2023/09/21 09:10:56;;;;;;;6.35;3.17;;;18.70;99.90;;;;;;5056497;28;20150;-76
2023/09/21 09:13:47;;;;;;;5.78;3.38;;;18.70;99.90;;;;;;5061160;28;20071;-76
2023/09/21 09:16:30;;;;;;;4.63;3.33;;;18.70;99.90;;;;;;5058263;28;20052;-76
2023/09/21 09:18:58;;;;;;;6.82;3.20;;;18.70;99.90;;;;;;5061611;28;20068;-77
2023/09/21 09:21:26;;;;;;;6.78;3.25;;;18.80;99.90;;;;;;5055026;28;20147;-77
2023/09/21 09:23:53;;;;;;;4.15;2.50;;;18.90;99.90;;;;;;5055641;28;20053;-76
2023/09/21 09:26:21;;;;;;;7.25;3.10;;;18.90;99.90;;;;;;5059805;28;20064;-81
2023/09/21 09:28:48;;;;;;;5.53;2.80;;;19.00;99.90;;;;;;5054617;28;22411;-77
2023/09/21 09:31:18;;;;;;;4.57;2.50;;;19.00;99.90;;;;;;5055407;28;20047;-76
2023/09/21 09:33:47;;;;;;;6.22;2.75;;;19.20;99.90;;;;;;5054673;28;20068;-77
2023/09/21 09:36:17;;;;;;;6.75;2.40;;;19.20;99.90;;;;;;5051439;28;20581;-77
2023/09/21 09:38:44;;;;;;;4.10;2.42;;;19.20;99.90;;;;;;5053266;28;20051;-77
2023/09/21 09:41:14;;;;;;;6.28;2.40;;;19.20;99.90;;;;;;5058350;28;20068;-78
2023/09/21 09:43:42;;;;;;;6.25;2.60;;;19.20;99.90;;;;;;5058962;28;20053;-76
2023/09/21 09:46:12;;;;;;;3.42;2.33;;;19.20;99.90;;;;;;5056558;28;20515;-76
2023/09/21 09:48:40;;;;;;;4.35;2.17;;;19.20;99.90;;;;;;5058069;28;20041;-80
2023/09/21 09:51:11;;;;;;;5.10;2.70;;;19.30;99.90;;;;;;5053695;28;20041;-78
2023/09/21 09:53:40;;;;;;;4.47;2.13;;;19.30;99.90;;;;;;5060552;28;20040;-78
2023/09/21 09:56:10;;;;;;;6.75;2.90;;;19.40;99.90;;;;;;5074672;28;20043;-78
2023/09/21 09:58:42;;;;;;;4.93;2.42;;;19.50;99.90;;;;;;5052301;28;20041;-78
2023/09/21 10:01:12;;;;;;;4.75;1.80;;;19.60;99.90;;;;;;5054579;28;20050;-82
2023/09/21 10:03:40;;;;;;;5.28;2.40;;;19.70;99.90;;;;;;5061971;28;20075;-76
2023/09/21 10:06:09;;;;;;;3.90;1.50;;;19.80;99.90;;;;;;5070408;28;20412;-78
2023/09/21 10:08:38;;;;;;;5.63;2.38;;;19.90;99.90;;;;;;5054428;28;20445;-78
2023/09/21 10:11:09;;;;;;;3.42;2.20;;;19.90;99.90;;;;;;5041437;28;20574;-77
2023/09/21 10:13:49;;;;;;;5.13;2.20;;;20.00;99.90;;;;;;5060678;28;20049;-79
2023/09/21 10:16:17;;;;;;;3.28;1.77;;;20.00;99.90;;;;;;5045489;28;20048;-79
2023/09/21 10:18:46;;;;;;;3.47;1.65;;;20.00;99.90;;;;;;5059367;28;20049;-79
2023/09/21 10:21:23;;;;;;;3.42;1.70;;;20.10;99.90;;;;;;5060635;28;20057;-77
2023/09/21 10:24:12;;;;;;;5.47;2.63;;;20.20;99.90;;;;;;5055450;28;20041;-79
2023/09/21 10:26:43;;;;;;;3.72;1.60;;;20.30;99.90;;;;;;5058671;28;20048;-79
2023/09/21 10:29:12;;;;;;;2.60;1.60;;;20.40;99.90;;;;;;5066414;28;20063;-76
2023/09/21 10:31:44;;;;;;;3.70;1.33;;;20.40;99.90;;;;;;5050106;28;20305;-78
2023/09/21 10:34:13;;;;;;;3.67;1.77;;;20.60;99.90;;;;;;5048185;28;20049;-79
2023/09/21 10:36:45;;;;;;;4.70;1.40;;;20.60;99.90;;;;;;5068529;28;21909;-78
2023/09/21 10:39:12;;;;;;;5.40;1.95;;;20.70;99.90;;;;;;5060111;28;20051;-78
2023/09/21 10:41:45;;;;;;;4.82;1.50;;;20.80;99.90;;;;;;5060868;28;20044;-79
2023/09/21 10:44:51;;;;;;;3.95;1.85;;;20.90;99.90;;;;;;5070506;28;20052;-78
2023/09/21 10:47:44;;;;;;;5.18;1.88;;;20.90;99.90;;;;;;5067282;28;20055;-78
2023/09/21 10:50:13;;;;;;;;;;;21.00;99.90;;;;;;5062030;28;20053;-77
2023/09/21 10:52:43;;;;;;;3.88;1.88;;;21.00;99.90;;;;;;5056124;28;19921;-80
2023/09/21 10:55:12;;;;;;;5.10;2.08;;;21.10;99.90;;;;;;5031226;28;20103;-78
2023/09/21 10:57:42;;;;;;;3.25;1.58;;;21.10;99.90;;;;;;5055358;28;20061;-77
2023/09/21 11:00:18;;;;;;;5.45;2.08;;;21.20;99.90;;;;;;5070862;28;20065;-77
2023/09/21 11:02:47;;;;;;;3.78;1.98;;;21.30;99.90;;;;;;5070393;28;20143;-78
2023/09/21 11:05:17;;;;;;;5.25;2.72;;;21.30;99.90;;;;;;5069539;28;20052;-78
2023/09/21 11:07:47;;;;;;;4.05;2.22;;;21.40;99.90;;;;;;5067380;28;20105;-78
2023/09/21 11:10:16;;;;;;;3.85;1.90;;;21.50;99.90;;;;;;5070315;28;20049;-79
2023/09/21 11:12:45;;;;;;;4.00;1.77;;;21.60;99.90;;;;;;5064746;28;20948;-78
2023/09/21 11:15:14;;;;;;;4.55;2.25;;;21.80;99.90;;;;;;5058009;28;22527;-79
2023/09/21 11:17:46;;;;;;;5.82;1.92;;;21.90;99.90;;;;;;5054877;28;20052;-82
2023/09/21 11:20:17;;;;;;;3.15;1.75;;;22.00;99.90;;;;;;5046781;28;20053;-79
2023/09/21 11:22:48;;;;;;;3.03;2.13;;;22.20;99.90;;;;;;5057316;28;20076;-79
2023/09/21 11:25:18;;;;;;;8.32;2.75;;;22.30;99.90;;;;;;5046961;28;20500;-79
2023/09/21 11:27:45;;;;;;;4.43;1.80;;;22.50;99.90;;;;;;5042438;28;20106;-81
2023/09/21 11:30:13;;;;;;;4.45;2.70;;;22.50;99.90;;;;;;5068782;28;20053;-80
2023/09/21 11:32:46;;;;;;;8.18;4.00;;;22.60;99.50;;;;;;5069963;28;20053;-80
2023/09/21 11:35:18;;;;;;;3.70;2.20;;;22.60;99.30;;;;;;5044570;28;20906;-80
2023/09/21 11:37:50;;;;;;;6.40;2.13;;;22.60;99.60;;;;;;5040963;28;20142;-78
2023/09/21 11:40:21;;;;;;;4.38;2.22;;;22.50;98.70;;;;;;5061650;28;20051;-78
2023/09/21 11:42:55;;;;;;;6.88;2.78;;;22.30;99.40;;;;;;5062857;28;20127;-78
2023/09/21 11:45:25;;;;;;;5.90;2.58;;;22.50;99.90;;;;;;5061578;28;20835;-77
2023/09/21 11:47:57;;;;;;;3.67;2.10;;;22.60;99.80;;;;;;5042627;28;20052;-81
2023/09/21 11:50:33;;;;;;;7.35;3.20;;;22.80;99.90;;;;;;5041937;28;20055;-78
2023/09/21 11:53:06;;;;;;;5.20;2.72;;;22.90;99.90;;;;;;5036603;28;22553;-78
2023/09/21 11:55:38;;;;;;;7.50;3.55;;;23.00;98.40;;;;;;5055371;28;22487;-78
2023/09/21 11:58:16;;;;;;;4.97;2.67;;;23.10;98.80;;;;;;5071190;28;20056;-79
2023/09/21 12:00:53;;;;;;;6.28;3.42;;;23.10;98.50;;;;;;5059913;28;20057;-78
2023/09/21 12:03:23;;;;;;;6.78;2.92;;;23.20;99.00;;;;;;5071559;28;20036;-78
2023/09/21 12:05:55;;;;;;;5.45;2.30;;;23.10;98.40;;;;;;5055216;28;20423;-80
2023/09/21 12:08:25;;;;;;;5.45;2.53;;;23.10;99.20;;;;;;5055273;28;20070;-78
2023/09/21 12:10:53;;;;;;;5.05;2.90;;;23.30;99.90;;;;;;5058053;28;20060;-80
2023/09/21 12:13:21;;;;;;;4.90;2.35;;;23.40;99.90;;;;;;5042631;28;20049;-79
2023/09/21 12:15:52;;;;;;;4.47;2.28;;;23.40;98.40;;;;;;5070112;28;20043;-82
2023/09/21 12:18:19;;;;;;;6.38;2.85;;;23.50;99.00;;;;;;5044522;28;20053;-79
2023/09/21 12:20:51;;;;;;;3.42;2.88;;;23.50;98.80;;;;;;5053676;28;21092;-77
2023/09/21 12:23:19;;;;;;;5.03;2.78;;;23.50;98.70;;;;;;5077293;28;20048;-80
2023/09/21 12:25:46;;;;;;;5.40;2.85;;;23.60;98.80;;;;;;5070525;28;20141;-79
2023/09/21 12:28:14;;;;;;;6.07;3.17;;;23.40;98.60;;;;;;5058327;28;20126;-80
2023/09/21 12:30:42;;;;;;;5.50;3.30;;;23.40;98.90;;;;;;5054350;28;20049;-79
2023/09/21 12:33:15;;;;;;;7.72;3.53;;;23.40;98.80;;;;;;5056508;28;20061;-78
2023/09/21 12:36:04;;;;;;;4.07;3.22;;;23.40;98.00;;;;;;5046368;28;20078;-80
2023/09/21 12:38:32;;;;;;;7.25;2.63;;;23.30;99.00;;;;;;5055611;28;21170;-82
2023/09/21 12:41:00;;;;;;;8.60;3.53;;;23.30;98.80;;;;;;5064641;28;20041;-78
2023/09/21 12:43:30;;;;;;;5.40;3.15;;;23.30;99.20;;;;;;5050644;28;20056;-80
2023/09/21 12:45:58;;;;;;;9.25;3.40;;;23.40;99.40;;;;;;5046264;28;22582;-79
2023/09/21 12:48:26;;;;;;;4.82;3.08;;;23.50;99.40;;;;;;5052182;28;22670;-80
2023/09/21 12:50:54;;;;;;;10.05;3.47;;;23.60;98.80;;;;;;5062374;28;20044;-78
2023/09/21 12:53:21;;;;;;;6.82;2.70;;;23.50;98.10;;;;;;5051185;28;20036;-80
2023/09/21 12:55:48;;;;;;;5.75;2.88;;;23.60;98.10;;;;;;5056863;28;20097;-79
2023/09/21 12:58:15;;;;;;;5.05;2.60;;;23.60;98.00;;;;;;5053666;28;22463;-79
2023/09/21 13:00:44;;;;;;;5.82;2.78;;;23.70;98.20;;;;;;5052013;28;20063;-80